createdAt,value
2022-09-07T00:00:00.215Z,25.90
2022-09-07T00:05:02.088Z,26.00
2022-09-07T00:10:03.963Z,25.70
2022-09-07T00:15:06.891Z,26.10
2022-09-07T00:20:10.285Z,25.90
2022-09-07T00:25:12.553Z,25.90
2022-09-07T00:30:14.266Z,25.80
2022-09-07T00:35:16.060Z,26.30
2022-09-07T00:40:17.853Z,26.50
2022-09-07T00:45:21.410Z,26.30
2022-09-07T00:50:28.873Z,26.10
2022-09-07T00:55:32.505Z,26.30
2022-09-07T01:00:34.646Z,26.20
2022-09-07T01:05:47.114Z,26.30
2022-09-07T01:10:48.839Z,26.20
2022-09-07T01:16:10.254Z,26.10
2022-09-07T01:21:38.231Z,25.70
2022-09-07T01:26:57.928Z,25.70
2022-09-07T01:31:59.589Z,26.10
2022-09-07T01:37:22.724Z,25.90
2022-09-07T01:42:32.855Z,26.00
2022-09-07T01:47:41.529Z,26.10
2022-09-07T01:53:16.990Z,26.00
2022-09-07T01:58:27.494Z,25.30
2022-09-07T02:03:47.060Z,25.30
2022-09-07T02:09:02.731Z,25.20
2022-09-07T02:14:18.289Z,24.90
2022-09-07T02:19:20.944Z,25.00
2022-09-07T02:24:33.677Z,24.80
2022-09-07T02:29:35.514Z,24.80
2022-09-07T02:34:37.479Z,25.00
2022-09-07T02:39:39.404Z,25.50
2022-09-07T02:44:42.693Z,25.30
2022-09-07T02:49:56.700Z,25.50
2022-09-07T02:55:25.979Z,25.70
2022-09-07T03:00:33.353Z,25.10
2022-09-07T03:05:52.856Z,25.10
2022-09-07T03:10:55.868Z,25.50
2022-09-07T03:15:58.118Z,25.20
2022-09-07T03:20:59.895Z,25.40
2022-09-07T03:26:01.618Z,25.30
2022-09-07T03:31:03.445Z,24.80
2022-09-07T03:36:05.234Z,24.30
2022-09-07T03:41:07.891Z,24.10
2022-09-07T03:46:09.749Z,23.90
2022-09-07T03:51:12.563Z,24.40
2022-09-07T03:56:14.235Z,23.90
2022-09-07T04:01:21.807Z,24.10
2022-09-07T04:06:23.564Z,24.20
2022-09-07T04:11:25.265Z,24.50
2022-09-07T04:16:28.014Z,24.20
2022-09-07T04:21:31.994Z,24.10
2022-09-07T04:26:34.802Z,23.80
2022-09-07T04:31:37.229Z,23.90
2022-09-07T04:36:38.947Z,24.10
2022-09-07T04:41:40.674Z,23.90
2022-09-07T04:46:42.411Z,24.00
2022-09-07T04:51:44.147Z,24.00
2022-09-07T04:56:45.902Z,23.80
2022-09-07T05:01:47.678Z,23.70
2022-09-07T05:06:49.459Z,24.20
2022-09-07T05:11:51.153Z,24.10
2022-09-07T05:16:52.855Z,23.80
2022-09-07T05:21:57.370Z,24.00
2022-09-07T05:26:59.212Z,23.90
2022-09-07T05:32:00.991Z,24.00
2022-09-07T05:37:02.886Z,24.40
2022-09-07T05:42:04.629Z,24.50
2022-09-07T05:47:06.630Z,25.10
2022-09-07T05:52:08.804Z,25.10
2022-09-07T05:57:11.986Z,25.30
2022-09-07T06:02:14.768Z,25.60
2022-09-07T06:07:23.877Z,25.40
2022-09-07T06:12:25.618Z,25.70
2022-09-07T06:17:30.312Z,25.80
2022-09-07T06:22:32.130Z,25.80
2022-09-07T06:27:34.157Z,25.00
2022-09-07T06:37:43.719Z,25.50
2022-09-07T06:42:45.411Z,25.70
2022-09-07T06:47:47.131Z,25.90
2022-09-07T06:58:10.529Z,26.30
2022-09-07T07:03:12.376Z,26.60
2022-09-07T07:08:14.117Z,26.80
2022-09-07T07:18:21.243Z,27.00
2022-09-07T07:23:23.134Z,27.00
2022-09-07T07:33:49.461Z,27.20
2022-09-07T07:39:00.580Z,27.10
2022-09-07T07:44:03.181Z,26.70
2022-09-07T07:49:04.848Z,26.80
2022-09-07T07:54:06.524Z,26.80
2022-09-07T07:59:10.652Z,26.80
2022-09-07T08:04:14.305Z,27.00
2022-09-07T08:09:15.989Z,26.90
2022-09-07T08:14:17.763Z,27.00
2022-09-07T08:19:19.449Z,27.00
2022-09-07T08:24:21.130Z,27.10
2022-09-07T08:29:22.981Z,27.20
2022-09-07T08:34:24.630Z,27.30
2022-09-07T08:39:26.462Z,27.20
2022-09-07T08:44:50.049Z,27.30
2022-09-07T08:50:01.845Z,27.20
2022-09-07T08:55:21.446Z,27.30
2022-09-07T09:00:23.175Z,27.30
2022-09-07T09:05:51.226Z,27.40
2022-09-07T09:11:11.963Z,27.40
2022-09-07T09:16:45.011Z,27.20
2022-09-07T09:21:47.363Z,27.40
2022-09-07T09:26:54.286Z,27.40
2022-09-07T09:31:56.158Z,27.30
2022-09-07T09:36:57.854Z,27.30
2022-09-07T09:42:21.845Z,27.20
2022-09-07T09:47:30.762Z,27.50
2022-09-07T09:52:45.126Z,27.10
2022-09-07T10:09:01.602Z,27.50
2022-09-07T10:14:03.344Z,27.70
2022-09-07T10:19:05.124Z,27.70
2022-09-07T10:24:06.741Z,27.80
2022-09-07T10:29:33.220Z,27.70
2022-09-07T10:34:49.589Z,27.80
2022-09-07T10:40:06.951Z,28.00
2022-09-07T10:45:20.615Z,27.90
2022-09-07T10:50:37.565Z,28.00
2022-09-07T10:55:51.950Z,28.10
2022-09-07T11:01:02.491Z,28.40
2022-09-07T11:06:25.571Z,28.50
2022-09-07T11:12:04.028Z,28.50
2022-09-07T11:17:18.449Z,28.30
2022-09-07T11:22:31.142Z,28.40
2022-09-07T11:27:38.943Z,28.10
2022-09-07T11:32:50.959Z,28.30
2022-09-07T11:37:56.753Z,28.50
2022-09-07T11:43:20.020Z,28.30
2022-09-07T11:48:30.441Z,28.30
2022-09-07T11:53:37.956Z,27.90
2022-09-07T11:58:51.375Z,28.70
2022-09-07T12:04:15.589Z,29.00
2022-09-07T12:09:20.296Z,29.00
2022-09-07T12:14:36.737Z,28.90
2022-09-07T12:19:38.418Z,28.90
2022-09-07T12:24:45.295Z,28.70
2022-09-07T12:29:48.418Z,29.60
2022-09-07T12:34:53.734Z,29.40
2022-09-07T12:40:29.065Z,29.30
2022-09-07T12:45:30.721Z,29.80
2022-09-07T12:50:58.528Z,30.60
2022-09-07T12:56:36.781Z,30.80
2022-09-07T13:02:04.604Z,30.50
2022-09-07T13:07:47.041Z,29.60
2022-09-07T13:12:54.167Z,30.40
2022-09-07T13:17:57.028Z,30.40
2022-09-07T13:23:21.328Z,30.60
2022-09-07T13:28:51.500Z,30.60
2022-09-07T13:33:54.352Z,30.50
2022-09-07T13:38:57.247Z,31.90
2022-09-07T13:44:01.213Z,31.90
2022-09-07T13:49:53.622Z,31.60
2022-09-07T13:55:16.180Z,31.60
2022-09-07T14:00:18.365Z,31.90
2022-09-07T14:05:21.375Z,31.80
2022-09-07T14:10:25.995Z,31.30
2022-09-07T14:15:32.079Z,30.20
2022-09-07T14:20:41.831Z,30.50
2022-09-07T14:31:09.101Z,30.70
2022-09-07T14:36:36.442Z,32.30
2022-09-07T14:41:36.098Z,32.10
2022-09-07T14:46:37.822Z,31.80
2022-09-07T14:51:44.463Z,32.00
2022-09-07T14:57:00.049Z,31.80
2022-09-07T15:02:20.098Z,31.90
2022-09-07T15:07:29.045Z,31.50
2022-09-07T15:12:38.538Z,30.90
2022-09-07T15:17:44.181Z,30.30
2022-09-07T15:22:46.194Z,30.00
2022-09-07T15:27:48.923Z,29.80
2022-09-07T15:32:50.619Z,29.90
2022-09-07T15:43:20.408Z,29.80
2022-09-07T15:48:25.207Z,30.10
2022-09-07T15:58:53.029Z,29.50
2022-09-07T16:03:57.052Z,29.50
2022-09-07T16:08:58.853Z,29.60
2022-09-07T16:14:02.377Z,29.40
2022-09-07T16:19:07.257Z,29.40
2022-09-07T16:24:09.358Z,29.30
2022-09-07T16:29:11.220Z,29.30
2022-09-07T16:34:12.902Z,29.20
2022-09-07T16:39:14.969Z,29.00
2022-09-07T16:44:16.823Z,29.00
2022-09-07T16:49:19.489Z,28.90
2022-09-07T16:54:21.391Z,28.90
2022-09-07T16:59:23.087Z,28.70
2022-09-07T17:04:24.935Z,28.70
2022-09-07T17:09:26.689Z,28.60
2022-09-07T17:14:28.346Z,28.50
2022-09-07T17:19:30.398Z,28.50
2022-09-07T17:24:32.589Z,28.30
2022-09-07T17:29:37.018Z,28.40
2022-09-07T17:34:39.128Z,28.40
2022-09-07T17:39:40.846Z,28.20
2022-09-07T17:44:42.602Z,28.10
2022-09-07T17:49:44.278Z,28.00
2022-09-07T17:54:45.983Z,28.00
2022-09-07T18:05:09.510Z,27.50
2022-09-07T18:10:11.259Z,27.40
2022-09-07T18:15:12.943Z,27.30
2022-09-07T18:20:14.731Z,27.40
2022-09-07T18:25:18.278Z,27.60
2022-09-07T18:30:20.279Z,27.50
2022-09-07T18:35:22.763Z,27.60
2022-09-07T18:40:24.448Z,27.70
2022-09-07T18:45:27.895Z,27.50
2022-09-07T18:50:29.936Z,27.40
2022-09-07T18:55:32.351Z,27.00
2022-09-07T19:00:34.274Z,27.00
2022-09-07T19:05:52.701Z,26.90
2022-09-07T19:10:54.752Z,26.90
2022-09-07T19:16:03.835Z,26.90
2022-09-07T19:21:07.648Z,27.10
2022-09-07T19:26:10.203Z,26.70
2022-09-07T19:31:11.929Z,26.90
2022-09-07T19:36:13.761Z,26.80
2022-09-07T19:41:15.479Z,26.70
2022-09-07T19:46:22.745Z,27.00
2022-09-07T19:51:26.430Z,26.90
2022-09-07T19:56:28.123Z,26.80
2022-09-07T20:01:30.024Z,26.90
2022-09-07T20:06:32.936Z,27.10
2022-09-07T20:11:36.019Z,27.10
2022-09-07T20:16:37.820Z,27.10
2022-09-07T20:21:39.668Z,27.00
2022-09-07T20:26:41.454Z,26.90
2022-09-07T20:31:43.249Z,27.00
2022-09-07T20:36:44.993Z,27.00
2022-09-07T20:41:47.065Z,26.90
2022-09-07T20:46:48.804Z,26.80
2022-09-07T20:51:50.523Z,26.70
2022-09-07T20:56:52.216Z,26.70
2022-09-07T21:01:53.978Z,26.50
2022-09-07T21:06:55.813Z,26.50
2022-09-07T21:11:57.499Z,26.40
2022-09-07T21:16:59.307Z,26.40
2022-09-07T21:22:00.980Z,26.40
2022-09-07T21:27:02.738Z,26.30
2022-09-07T21:32:04.521Z,26.20
2022-09-07T21:37:06.173Z,26.20
2022-09-07T21:42:07.832Z,26.10
2022-09-07T21:47:09.527Z,25.80
2022-09-07T21:52:11.279Z,25.90
2022-09-07T21:57:12.893Z,25.80
2022-09-07T22:02:14.740Z,25.80
2022-09-07T22:07:16.550Z,25.80
2022-09-07T22:12:18.223Z,25.80
2022-09-07T22:17:20.122Z,25.60
2022-09-07T22:22:21.794Z,25.50
2022-09-07T22:27:23.483Z,25.50
2022-09-07T22:32:25.160Z,25.50
2022-09-07T22:37:26.823Z,25.50
2022-09-07T22:42:28.491Z,25.50
2022-09-07T22:47:30.160Z,25.40
2022-09-07T22:52:31.827Z,25.50
2022-09-07T22:57:33.503Z,25.30
2022-09-07T23:02:35.170Z,25.40
2022-09-07T23:07:36.914Z,25.40
2022-09-07T23:12:38.582Z,25.40
2022-09-07T23:17:40.250Z,25.40
2022-09-07T23:22:44.160Z,25.20
2022-09-07T23:27:45.844Z,25.30
2022-09-07T23:32:47.521Z,25.30
2022-09-07T23:37:49.191Z,25.40
2022-09-07T23:42:50.842Z,25.20
2022-09-07T23:47:52.727Z,25.40
2022-09-07T23:52:54.385Z,25.40
2022-09-07T23:57:56.062Z,25.30
